Aviation Digital Data Service (ADDS)

Output produced by METARs form (2302 UTC 14 February 2016)
found at http://aviationweather.gov/adds/metars/
 
KHLG 141727Z 1418/1518 15006KT P6SM BKN250 
     FM142300 VRB05KT P6SM BKN100 
     FM150500 12007KT 5SM -SN OVC015 
     FM151600 16010KT P6SM OVC015